Time;durP1;ratioP1;P1;durP2;ratioP2;P2;SDS_P1;SDS_P2;PMS_P1;PMS_P2;Temp;Humidity;BMP_temperature;BMP_pressure;BME280_temperature;BME280_humidity;BME280_pressure;Samples;Min_cycle;Max_cycle;Signal;HPM_P1;HPM_P2
2021/01/04 00:01:29;;;;;;;15.73;13.00;;;-3.20;74.70;;;;;;5169743;28;20097;-76
2021/01/04 00:04:29;;;;;;;16.55;13.45;;;-3.20;74.90;;;;;;5170190;28;20382;-76
2021/01/04 00:07:06;;;;;;;15.75;12.93;;;-3.30;75.00;;;;;;5170260;28;20086;-75
2021/01/04 00:10:13;;;;;;;15.15;12.30;;;-3.30;75.20;;;;;;5171869;28;20042;-75
2021/01/04 00:13:09;;;;;;;15.82;12.75;;;-3.40;75.20;;;;;;5172056;28;20149;-75
2021/01/04 00:16:33;;;;;;;17.42;12.68;;;-3.40;75.10;;;;;;5167629;28;20042;-76
2021/01/04 00:19:16;;;;;;;15.00;12.00;;;-3.40;75.10;;;;;;5137446;28;20046;-75
2021/01/04 00:22:05;;;;;;;18.25;12.40;;;-3.50;75.30;;;;;;5169015;28;20082;-76
2021/01/04 00:24:53;;;;;;;17.27;13.15;;;-3.50;75.40;;;;;;5167359;28;20595;-75
2021/01/04 00:27:47;;;;;;;15.65;13.32;;;-3.50;75.40;;;;;;5148989;28;20053;-75
2021/01/04 00:30:28;;;;;;;17.02;11.90;;;-3.50;75.60;;;;;;5169052;28;20066;-75
2021/01/04 00:33:03;;;;;;;;;;;-3.50;75.20;;;;;;5167923;28;20066;-76
2021/01/04 00:35:36;;;;;;;17.48;12.25;;;-3.50;75.40;;;;;;5168014;28;19966;-75
2021/01/04 00:38:16;;;;;;;18.55;12.68;;;-3.50;75.30;;;;;;5167784;28;20046;-75
2021/01/04 00:41:42;;;;;;;15.82;12.52;;;-3.50;75.10;;;;;;5166449;28;20042;-75
2021/01/04 00:44:41;;;;;;;19.00;13.50;;;-3.50;75.40;;;;;;5085042;29;20107;-75
2021/01/04 00:47:37;;;;;;;16.67;13.37;;;-3.60;75.60;;;;;;5168034;28;20093;-75
2021/01/04 00:50:46;;;;;;;19.38;12.93;;;-3.50;75.70;;;;;;5150412;28;20038;-75
2021/01/04 00:53:33;;;;;;;16.95;12.57;;;-3.50;75.50;;;;;;5166629;28;20050;-76
2021/01/04 00:56:29;;;;;;;16.42;12.82;;;-3.60;75.20;;;;;;5166435;28;20104;-76
2021/01/04 00:59:21;;;;;;;17.48;12.43;;;-3.60;75.40;;;;;;5166030;28;20053;-75
2021/01/04 01:02:19;;;;;;;16.83;13.23;;;-3.60;74.90;;;;;;5148723;28;20050;-75
2021/01/04 01:05:17;;;;;;;17.08;11.93;;;-3.60;74.70;;;;;;5165228;28;20042;-75
2021/01/04 01:08:10;;;;;;;17.92;12.57;;;-3.70;75.00;;;;;;5167129;28;20046;-76
2021/01/04 01:11:10;;;;;;;16.15;12.43;;;-3.60;75.10;;;;;;5150033;28;20050;-75
2021/01/04 01:13:51;;;;;;;;;;;-3.70;75.00;;;;;;5169742;28;20649;-74
2021/01/04 01:16:26;;;;;;;16.45;11.93;;;-3.70;75.10;;;;;;5164703;28;20036;-75
2021/01/04 01:19:23;;;;;;;16.30;11.38;;;-3.70;74.70;;;;;;5167396;28;20052;-76
2021/01/04 01:21:58;;;;;;;15.77;12.45;;;-3.80;74.50;;;;;;5166426;28;20530;-75
2021/01/04 01:24:31;;;;;;;14.07;11.68;;;-3.90;73.70;;;;;;5165948;28;20140;-74
2021/01/04 01:27:09;;;;;;;14.45;11.85;;;-3.80;73.90;;;;;;5168815;28;20539;-76
2021/01/04 01:30:11;;;;;;;16.27;12.75;;;-3.90;74.20;;;;;;5150645;28;20035;-76
2021/01/04 01:33:27;;;;;;;17.38;12.60;;;-3.90;74.70;;;;;;5169147;28;20049;-75
2021/01/04 01:36:30;;;;;;;18.98;13.40;;;-3.90;74.80;;;;;;5149935;28;20041;-76
2021/01/04 01:39:10;;;;;;;15.55;11.68;;;-3.90;74.70;;;;;;5167174;28;20049;-76
2021/01/04 01:42:23;;;;;;;15.43;12.02;;;-3.90;74.70;;;;;;5164207;28;20054;-74
2021/01/04 01:44:58;;;;;;;17.33;12.10;;;-3.90;74.90;;;;;;5101276;28;20035;-75
2021/01/04 01:47:35;;;;;;;15.13;11.25;;;-3.90;75.50;;;;;;5102415;28;20042;-75
2021/01/04 01:50:29;;;;;;;15.10;12.15;;;-3.80;75.50;;;;;;5140937;28;20113;-73
2021/01/04 01:53:22;;;;;;;20.10;13.23;;;-3.80;75.50;;;;;;5165768;28;20042;-74
2021/01/04 01:56:26;;;;;;;16.50;11.73;;;-3.80;75.40;;;;;;5171878;28;20053;-75
2021/01/04 01:59:12;;;;;;;16.02;12.55;;;-3.70;75.00;;;;;;5169313;28;20050;-76
2021/01/04 02:01:50;;;;;;;14.77;11.90;;;-3.80;74.10;;;;;;5168819;28;20046;-74
2021/01/04 02:05:09;;;;;;;15.07;12.52;;;-3.90;73.40;;;;;;5150518;28;20050;-76
2021/01/04 02:07:59;;;;;;;15.30;12.25;;;-4.00;73.30;;;;;;5138971;28;20046;-76
2021/01/04 02:10:34;;;;;;;17.13;12.30;;;-4.00;73.50;;;;;;5166177;28;20520;-75
2021/01/04 02:13:18;;;;;;;15.73;12.80;;;-4.00;74.00;;;;;;5165704;28;20120;-75
2021/01/04 02:16:12;;;;;;;17.90;12.65;;;-4.00;74.20;;;;;;5163746;28;20109;-76
2021/01/04 02:19:02;;;;;;;15.85;12.25;;;-4.00;74.60;;;;;;5166636;28;20042;-74
2021/01/04 02:22:22;;;;;;;15.90;12.52;;;-4.00;74.40;;;;;;5164805;28;20046;-75
2021/01/04 02:24:54;;;;;;;16.27;12.20;;;-4.10;74.60;;;;;;5123043;28;20051;-76
2021/01/04 02:27:32;;;;;;;16.77;11.77;;;-4.10;74.60;;;;;;5165611;28;20559;-74
2021/01/04 02:30:05;;;;;;;15.60;11.70;;;-4.10;74.60;;;;;;5165023;28;20046;-75
2021/01/04 02:32:37;;;;;;;16.60;12.23;;;-4.10;74.40;;;;;;5163460;28;20827;-77
2021/01/04 02:35:09;;;;;;;17.25;13.02;;;-4.10;74.50;;;;;;5165256;28;20378;-75
2021/01/04 02:37:41;;;;;;;16.00;12.35;;;-4.10;75.00;;;;;;5164936;28;20405;-74
2021/01/04 02:40:15;;;;;;;17.73;13.23;;;-4.10;75.00;;;;;;5165373;28;20042;-76
2021/01/04 02:42:49;;;;;;;15.77;12.65;;;-4.20;74.70;;;;;;5146565;28;20416;-75
2021/01/04 02:45:26;;;;;;;16.77;12.65;;;-4.20;74.80;;;;;;5165543;28;20982;-76
2021/01/04 02:48:22;;;;;;;17.17;12.23;;;-4.20;74.60;;;;;;5165802;28;20048;-76
2021/01/04 02:51:13;;;;;;;15.27;12.25;;;-4.20;74.10;;;;;;5162987;28;20487;-76
2021/01/04 02:54:02;;;;;;;16.80;12.38;;;-4.30;74.00;;;;;;5164175;28;20081;-75
2021/01/04 02:56:44;;;;;;;16.30;12.32;;;-4.30;74.20;;;;;;5165189;28;20125;-75
2021/01/04 02:59:21;;;;;;;14.43;10.98;;;-4.30;74.00;;;;;;5167240;28;20443;-75
2021/01/04 03:01:56;;;;;;;15.77;11.95;;;-4.30;73.70;;;;;;5164387;28;20128;-76
2021/01/04 03:04:28;;;;;;;14.63;11.52;;;-4.30;73.80;;;;;;5164283;28;20101;-75
2021/01/04 03:07:03;;;;;;;16.10;11.23;;;-4.30;73.30;;;;;;5145520;28;20053;-75
2021/01/04 03:09:35;;;;;;;18.17;12.43;;;-4.40;73.30;;;;;;5163615;28;20578;-76
2021/01/04 03:12:11;;;;;;;16.63;12.68;;;-4.40;74.30;;;;;;5148624;28;20046;-76
2021/01/04 03:14:57;;;;;;;15.65;11.85;;;-4.50;73.90;;;;;;5147583;28;20038;-76
2021/01/04 03:17:39;;;;;;;15.18;11.77;;;-4.50;74.70;;;;;;5164715;28;20043;-76
2021/01/04 03:20:15;;;;;;;17.05;12.18;;;-4.50;74.50;;;;;;5164521;28;20113;-76
2021/01/04 03:22:48;;;;;;;16.58;11.93;;;-4.50;74.90;;;;;;5164878;28;20050;-75
2021/01/04 03:25:30;;;;;;;15.88;11.70;;;-4.50;74.90;;;;;;5162810;28;20621;-76
2021/01/04 03:28:05;;;;;;;17.70;12.10;;;-4.50;74.90;;;;;;5152331;28;20591;-75
2021/01/04 03:30:37;;;;;;;16.85;12.85;;;-4.50;74.90;;;;;;5167746;28;20445;-76
2021/01/04 03:33:08;;;;;;;16.58;11.98;;;-4.60;74.20;;;;;;5152371;28;20049;-75
2021/01/04 03:35:40;;;;;;;16.13;11.55;;;-4.60;74.30;;;;;;5168841;28;20038;-75
2021/01/04 03:38:11;;;;;;;18.05;13.15;;;-4.70;74.10;;;;;;5166389;28;20168;-75
2021/01/04 03:40:43;;;;;;;16.55;11.77;;;-4.80;74.60;;;;;;5151385;28;20101;-75
2021/01/04 03:43:15;;;;;;;17.33;12.80;;;-4.80;74.60;;;;;;5166656;28;20042;-75
2021/01/04 03:45:47;;;;;;;19.13;12.40;;;-4.70;75.00;;;;;;5168588;28;20456;-75
2021/01/04 03:48:18;;;;;;;15.77;11.85;;;-4.70;75.00;;;;;;5120869;28;20045;-76
2021/01/04 03:50:51;;;;;;;16.85;12.32;;;-4.60;75.00;;;;;;5159644;28;20050;-77
2021/01/04 03:53:23;;;;;;;15.40;11.13;;;-4.60;75.00;;;;;;5167389;28;20142;-75
2021/01/04 03:55:54;;;;;;;17.88;12.25;;;-4.60;74.60;;;;;;5168080;28;20472;-75
2021/01/04 03:58:26;;;;;;;16.15;11.85;;;-4.60;74.40;;;;;;5168799;28;20127;-74
2021/01/04 04:00:57;;;;;;;18.92;12.48;;;-4.60;75.40;;;;;;5166781;28;20124;-75
2021/01/04 04:03:29;;;;;;;18.23;12.30;;;-4.60;74.90;;;;;;5170081;28;20779;-75
2021/01/04 04:06:00;;;;;;;16.48;11.23;;;-4.50;75.00;;;;;;5169914;28;20074;-75
2021/01/04 04:08:32;;;;;;;16.50;11.70;;;-4.50;74.20;;;;;;5150053;28;20548;-76
2021/01/04 04:11:03;;;;;;;17.13;12.95;;;-4.60;74.00;;;;;;5159028;28;20047;-76
2021/01/04 04:13:35;;;;;;;16.38;11.65;;;-4.60;73.60;;;;;;5169871;28;20496;-75
2021/01/04 04:16:07;;;;;;;18.23;11.43;;;-4.60;73.60;;;;;;5166942;28;20057;-75
2021/01/04 04:18:38;;;;;;;17.08;12.27;;;-4.60;74.00;;;;;;5170586;28;20054;-75
2021/01/04 04:21:15;;;;;;;17.02;11.60;;;-4.70;73.20;;;;;;5166963;28;20038;-75
2021/01/04 04:23:46;;;;;;;16.48;11.65;;;-4.70;73.30;;;;;;5168270;28;20069;-75
2021/01/04 04:26:20;;;;;;;15.85;11.77;;;-4.70;73.60;;;;;;5169484;28;20077;-76
2021/01/04 04:28:52;;;;;;;16.58;11.70;;;-4.80;73.00;;;;;;5168295;28;20057;-75
2021/01/04 04:31:23;;;;;;;15.85;11.48;;;-4.80;73.30;;;;;;5167702;28;20186;-75
2021/01/04 04:33:55;;;;;;;16.35;11.95;;;-4.80;73.40;;;;;;5167105;28;20093;-75
2021/01/04 04:36:27;;;;;;;16.23;12.27;;;-4.80;73.20;;;;;;5155148;28;20089;-75
2021/01/04 04:38:58;;;;;;;15.85;11.38;;;-4.90;73.10;;;;;;5168907;28;20049;-75
2021/01/04 04:41:34;;;;;;;16.05;12.05;;;-4.90;73.20;;;;;;5167241;28;20049;-74
2021/01/04 04:44:30;;;;;;;20.55;12.57;;;-4.90;73.30;;;;;;5168530;28;20050;-75
2021/01/04 04:47:27;;;;;;;16.20;11.65;;;-4.90;73.10;;;;;;5157224;28;20081;-76
2021/01/04 04:50:21;;;;;;;16.77;12.40;;;-4.90;73.70;;;;;;5160173;28;20062;-75
2021/01/04 04:53:07;;;;;;;19.52;12.95;;;-4.90;74.00;;;;;;5167195;28;20162;-75
2021/01/04 04:56:11;;;;;;;16.55;12.35;;;-4.90;74.30;;;;;;5167880;28;20136;-76
2021/01/04 04:58:54;;;;;;;14.85;11.00;;;-4.80;74.50;;;;;;5166240;28;20100;-76
2021/01/04 05:01:58;;;;;;;18.30;12.18;;;-4.80;74.30;;;;;;5168064;28;20073;-76
2021/01/04 05:04:47;;;;;;;16.90;11.98;;;-4.80;73.50;;;;;;5168911;28;20058;-76
2021/01/04 05:07:27;;;;;;;17.73;11.73;;;-4.90;73.00;;;;;;5150335;28;20046;-77
2021/01/04 05:10:02;;;;;;;14.93;11.88;;;-4.90;72.80;;;;;;5169808;28;20034;-76
2021/01/04 05:12:36;;;;;;;17.13;12.77;;;-5.00;73.10;;;;;;5167135;28;20042;-76
2021/01/04 05:15:13;;;;;;;15.95;11.70;;;-5.00;73.50;;;;;;5151189;28;20046;-75
2021/01/04 05:18:18;;;;;;;15.23;11.88;;;-5.10;73.60;;;;;;5165903;28;20038;-76
2021/01/04 05:20:58;;;;;;;17.00;12.10;;;-5.10;74.00;;;;;;5165976;28;20801;-77
2021/01/04 05:24:05;;;;;;;18.70;13.02;;;-5.20;74.00;;;;;;5165541;28;20901;-76
2021/01/04 05:26:55;;;;;;;16.48;11.88;;;-5.20;73.80;;;;;;5167082;28;20042;-76
2021/01/04 05:29:54;;;;;;;19.02;12.05;;;-5.30;74.00;;;;;;5150534;28;20602;-75
2021/01/04 05:32:53;;;;;;;20.08;12.65;;;-5.20;74.60;;;;;;5165693;28;20042;-75
2021/01/04 05:35:26;;;;;;;16.20;11.82;;;-5.20;74.50;;;;;;5163923;28;20042;-76
2021/01/04 05:38:11;;;;;;;16.27;11.00;;;-5.20;75.00;;;;;;5164888;28;20446;-75
2021/01/04 05:41:11;;;;;;;14.88;11.38;;;-5.20;73.70;;;;;;5149128;28;20050;-75
2021/01/04 05:43:52;;;;;;;18.35;12.07;;;-5.20;73.40;;;;;;5132184;28;20408;-76
2021/01/04 05:46:32;;;;;;;17.67;12.35;;;-5.20;73.40;;;;;;5167165;28;20837;-75
2021/01/04 05:49:07;;;;;;;17.35;12.50;;;-5.20;73.40;;;;;;5168209;28;20045;-76
2021/01/04 05:51:43;;;;;;;17.25;11.70;;;-5.20;73.50;;;;;;5148520;28;20042;-70
2021/01/04 05:54:23;;;;;;;18.58;12.68;;;-5.30;73.70;;;;;;5166905;28;20931;-70
2021/01/04 05:57:10;;;;;;;16.77;12.32;;;-5.20;74.60;;;;;;5150921;28;20136;-70
2021/01/04 06:00:00;;;;;;;25.95;15.40;;;-5.10;74.80;;;;;;5156395;28;20625;-70
2021/01/04 06:02:34;;;;;;;22.85;14.77;;;-5.10;74.00;;;;;;5168486;28;20504;-71
2021/01/04 06:05:11;;;;;;;23.02;14.85;;;-5.10;73.40;;;;;;5165506;28;20352;-69
2021/01/04 06:07:44;;;;;;;27.45;16.38;;;-5.10;73.70;;;;;;5165916;28;20125;-72
2021/01/04 06:10:22;;;;;;;23.85;15.80;;;-5.10;73.50;;;;;;5164538;28;20057;-70
2021/01/04 06:13:18;;;;;;;23.33;14.05;;;-5.10;74.50;;;;;;5168119;28;20082;-71
2021/01/04 06:15:50;;;;;;;18.08;12.27;;;-5.10;73.20;;;;;;5164391;28;20053;-71
2021/01/04 06:18:26;;;;;;;20.85;12.77;;;-5.10;73.00;;;;;;5168711;28;20077;-71
2021/01/04 06:21:16;;;;;;;24.48;14.57;;;-5.10;73.30;;;;;;5165819;28;20479;-71
2021/01/04 06:23:50;;;;;;;21.05;12.02;;;-5.10;73.10;;;;;;5132233;28;20104;-72
2021/01/04 06:26:23;;;;;;;16.27;11.15;;;-5.20;72.60;;;;;;5167394;28;20050;-71
2021/01/04 06:28:58;;;;;;;16.27;11.55;;;-5.20;72.70;;;;;;5166123;28;20463;-72
2021/01/04 06:31:40;;;;;;;16.55;12.05;;;-5.20;72.60;;;;;;5165730;28;20041;-71
2021/01/04 06:34:25;;;;;;;17.13;11.80;;;-5.30;72.10;;;;;;5158568;28;20604;-70
2021/01/04 06:37:02;;;;;;;14.68;11.43;;;-5.40;72.40;;;;;;5161386;28;20049;-71
2021/01/04 06:39:34;;;;;;;16.08;10.90;;;-5.40;72.90;;;;;;5156340;28;20046;-71
2021/01/04 06:42:13;;;;;;;17.05;11.52;;;-5.40;73.00;;;;;;5146074;28;20515;-71
2021/01/04 06:45:06;;;;;;;15.70;11.15;;;-5.40;73.90;;;;;;5165700;28;20050;-71
2021/01/04 06:47:41;;;;;;;17.17;11.25;;;-5.50;73.20;;;;;;5169070;28;20045;-71
2021/01/04 06:50:20;;;;;;;15.50;11.32;;;-5.50;73.30;;;;;;5162832;28;20030;-71
2021/01/04 06:53:27;;;;;;;15.20;10.68;;;-5.50;72.80;;;;;;5164983;28;20038;-71
2021/01/04 06:56:25;;;;;;;15.95;10.65;;;-5.60;74.30;;;;;;5147418;28;20124;-71
2021/01/04 06:59:15;;;;;;;17.90;11.15;;;-5.60;74.60;;;;;;5166812;28;20050;-71
2021/01/04 07:02:25;;;;;;;16.75;11.30;;;-5.60;75.20;;;;;;5166149;28;20539;-71
2021/01/04 07:05:33;;;;;;;16.15;11.85;;;-5.50;75.50;;;;;;5131725;28;20139;-71
2021/01/04 07:08:16;;;;;;;18.73;13.07;;;-5.50;75.20;;;;;;5143378;28;20751;-71
2021/01/04 07:10:53;;;;;;;17.33;12.60;;;-5.50;75.60;;;;;;5163489;28;20088;-72
2021/01/04 07:13:55;;;;;;;18.77;13.07;;;-5.50;75.90;;;;;;5167336;28;20046;-71
2021/01/04 07:16:35;;;;;;;22.15;12.50;;;-5.50;76.30;;;;;;5165002;28;20388;-71
2021/01/04 07:19:57;;;;;;;19.08;13.57;;;-5.50;75.90;;;;;;5167156;28;20520;-72
2021/01/04 07:22:52;;;;;;;17.83;12.20;;;-5.50;75.80;;;;;;5100824;28;20051;-71
2021/01/04 07:25:45;;;;;;;19.25;12.60;;;-5.50;76.40;;;;;;5147678;28;20050;-71
2021/01/04 07:28:37;;;;;;;18.05;13.15;;;-5.50;76.70;;;;;;5166648;28;20054;-72
2021/01/04 07:31:22;;;;;;;18.90;13.45;;;-5.40;77.20;;;;;;5163986;28;20547;-71
2021/01/04 07:34:16;;;;;;;17.25;12.52;;;-5.40;76.90;;;;;;5140692;28;20109;-72
2021/01/04 07:37:19;;;;;;;19.55;13.20;;;-5.30;76.60;;;;;;5165963;28;20050;-73
2021/01/04 07:40:07;;;;;;;18.70;12.82;;;-5.30;76.40;;;;;;5162832;28;20042;-71
2021/01/04 07:43:17;;;;;;;17.45;12.60;;;-5.30;75.10;;;;;;5160248;28;20042;-71
2021/01/04 07:46:26;;;;;;;15.00;12.38;;;-5.40;74.40;;;;;;5164038;28;20054;-72
2021/01/04 07:49:40;;;;;;;16.30;11.98;;;-5.50;74.10;;;;;;5162429;28;20122;-71
2021/01/04 07:52:36;;;;;;;15.13;11.40;;;-5.50;73.80;;;;;;5163077;28;20108;-71
2021/01/04 07:55:29;;;;;;;14.73;11.45;;;-5.60;74.10;;;;;;5164493;28;20515;-71
2021/01/04 07:58:09;;;;;;;17.67;11.77;;;-5.60;74.10;;;;;;5146520;28;20396;-72
2021/01/04 08:00:49;;;;;;;;;;;-5.50;73.70;;;;;;5162766;28;20029;-72
2021/01/04 08:03:41;;;;;;;14.85;11.52;;;-5.60;73.50;;;;;;5163142;28;20789;-72
2021/01/04 08:06:15;;;;;;;17.92;12.52;;;-5.60;73.50;;;;;;5160262;28;20050;-70
2021/01/04 08:09:08;;;;;;;20.13;13.55;;;-5.50;73.90;;;;;;5162342;28;20604;-72
2021/01/04 08:11:51;;;;;;;18.65;13.13;;;-5.50;73.70;;;;;;5161739;28;20041;-70
2021/01/04 08:15:00;;;;;;;20.08;13.57;;;-5.40;74.00;;;;;;5163922;28;20408;-71
2021/01/04 08:17:44;;;;;;;20.70;13.68;;;-5.40;73.50;;;;;;5165638;28;20052;-71
2021/01/04 08:20:16;;;;;;;20.83;13.27;;;-5.40;73.40;;;;;;5164923;28;20054;-72
2021/01/04 08:23:06;;;;;;;17.55;12.40;;;-5.30;73.30;;;;;;5163665;28;20074;-72
2021/01/04 08:25:47;;;;;;;;;;;-5.20;72.90;;;;;;5164454;28;20038;-72
2021/01/04 08:29:00;;;;;;;19.50;13.07;;;-5.20;72.50;;;;;;5164948;28;19999;-72
2021/01/04 08:31:35;;;;;;;18.10;12.93;;;-5.10;72.40;;;;;;5151294;28;20619;-73
2021/01/04 08:34:10;;;;;;;18.23;13.27;;;-5.00;72.70;;;;;;5162954;28;20038;-72
2021/01/04 08:36:41;;;;;;;17.73;11.63;;;-4.90;72.60;;;;;;5163298;28;20054;-71
2021/01/04 08:39:22;;;;;;;17.23;11.63;;;-4.90;71.60;;;;;;5163101;28;20045;-71
2021/01/04 08:42:20;;;;;;;16.60;12.15;;;-4.90;71.70;;;;;;5162736;28;20582;-71
2021/01/04 08:45:06;;;;;;;17.35;12.32;;;-4.90;71.30;;;;;;5146510;28;20504;-72
2021/01/04 08:47:51;;;;;;;16.90;12.63;;;-4.90;70.80;;;;;;5162738;28;20140;-72
2021/01/04 08:50:23;;;;;;;15.15;11.80;;;-4.90;70.80;;;;;;5161969;28;20125;-72
2021/01/04 08:52:56;;;;;;;14.93;11.63;;;-5.00;71.10;;;;;;5166824;28;20038;-72
2021/01/04 08:55:33;;;;;;;15.82;11.13;;;-4.90;72.40;;;;;;5167301;28;20046;-71
2021/01/04 08:58:40;;;;;;;17.25;11.90;;;-4.80;72.40;;;;;;5166152;28;20144;-72
2021/01/04 09:01:12;;;;;;;17.65;11.98;;;-4.80;72.50;;;;;;5167409;28;20591;-74
2021/01/04 09:03:44;;;;;;;19.05;13.90;;;-4.70;72.60;;;;;;5167829;28;20132;-75
2021/01/04 09:06:32;;;;;;;18.85;12.32;;;-4.60;72.90;;;;;;5167913;28;20042;-74
2021/01/04 09:09:16;;;;;;;17.58;12.77;;;-4.50;73.10;;;;;;5167340;28;20532;-73
2021/01/04 09:12:13;;;;;;;18.48;12.80;;;-4.40;73.60;;;;;;5168622;28;20054;-73
2021/01/04 09:14:50;;;;;;;17.90;13.35;;;-4.30;73.30;;;;;;5138441;28;20046;-73
2021/01/04 09:17:48;;;;;;;19.92;13.18;;;-4.20;73.50;;;;;;5158736;28;20054;-73
2021/01/04 09:20:25;;;;;;;20.83;14.40;;;-4.10;73.30;;;;;;5167355;28;20594;-73
2021/01/04 09:23:10;;;;;;;18.85;13.65;;;-4.00;73.30;;;;;;5166123;28;20096;-73
2021/01/04 09:25:45;;;;;;;19.00;13.85;;;-3.80;73.80;;;;;;5157629;28;20046;-72
2021/01/04 09:28:19;;;;;;;19.15;13.63;;;-3.70;74.20;;;;;;5152005;28;20042;-73
2021/01/04 09:30:52;;;;;;;20.10;13.75;;;-3.50;74.00;;;;;;5150523;28;20050;-74
2021/01/04 09:33:24;;;;;;;18.92;14.38;;;-3.40;73.10;;;;;;5149501;28;20052;-77
2021/01/04 09:36:07;;;;;;;18.48;14.13;;;-3.40;73.10;;;;;;5154866;28;20046;-77
2021/01/04 09:39:06;;;;;;;18.13;14.23;;;-3.20;73.40;;;;;;5154295;28;20065;-78
2021/01/04 09:41:38;;;;;;;16.23;13.25;;;-3.10;73.00;;;;;;5168460;28;20138;-78
2021/01/04 09:44:12;;;;;;;19.60;14.32;;;-2.90;73.10;;;;;;5135905;28;20109;-79
2021/01/04 09:47:03;;;;;;;18.08;13.43;;;-2.80;73.00;;;;;;5154927;28;20045;-77
2021/01/04 09:49:40;;;;;;;17.98;13.90;;;-2.60;72.30;;;;;;5152154;28;20554;-78
2021/01/04 09:52:25;;;;;;;20.13;14.57;;;-2.40;71.90;;;;;;5170432;28;20050;-78
2021/01/04 09:55:03;;;;;;;19.10;13.82;;;-2.40;71.40;;;;;;5167071;28;20618;-78
2021/01/04 09:57:39;;;;;;;20.67;14.15;;;-2.20;71.60;;;;;;5155915;28;20038;-79
2021/01/04 10:00:22;;;;;;;18.60;14.20;;;-2.10;71.80;;;;;;5169293;28;20508;-78
2021/01/04 10:03:04;;;;;;;21.20;14.60;;;-1.90;71.50;;;;;;5158690;28;20057;-78
2021/01/04 10:05:44;;;;;;;20.58;15.35;;;-1.90;70.50;;;;;;5144392;28;20073;-78
2021/01/04 10:08:23;;;;;;;20.63;15.07;;;-1.80;70.80;;;;;;5152331;28;20420;-78
2021/01/04 10:10:58;;;;;;;18.55;15.00;;;-1.70;70.40;;;;;;5141464;28;20560;-78
2021/01/04 10:13:33;;;;;;;20.23;14.60;;;-1.60;70.70;;;;;;5154279;28;20046;-77
2021/01/04 10:16:09;;;;;;;18.98;13.90;;;-1.50;70.30;;;;;;5168808;28;20097;-78
2021/01/04 10:18:50;;;;;;;18.40;14.00;;;-1.20;69.50;;;;;;5171817;28;20045;-78
2021/01/04 10:21:31;;;;;;;19.75;15.15;;;-1.00;69.50;;;;;;5134615;28;20136;-78
2021/01/04 10:24:13;;;;;;;18.98;14.88;;;-0.80;69.50;;;;;;5167411;28;20049;-79
2021/01/04 10:26:55;;;;;;;16.95;14.60;;;-0.60;68.60;;;;;;5171792;28;20041;-78
2021/01/04 10:29:27;;;;;;;19.83;15.50;;;-0.50;67.90;;;;;;5150539;28;20038;-78
2021/01/04 10:32:10;;;;;;;19.88;15.63;;;-0.20;69.20;;;;;;5143518;28;20050;-81
2021/01/04 10:34:47;;;;;;;17.70;15.23;;;-0.10;66.70;;;;;;5167260;28;20046;-79
2021/01/04 10:37:38;;;;;;;17.23;15.05;;;-0.10;65.30;;;;;;5150459;28;20042;-78
2021/01/04 10:40:17;;;;;;;17.83;15.02;;;0.00;67.20;;;;;;5168105;28;20172;-76
2021/01/04 10:43:03;;;;;;;20.80;14.52;;;0.20;67.10;;;;;;5125632;28;20088;-78
2021/01/04 10:45:42;;;;;;;16.95;14.68;;;0.40;66.80;;;;;;5169191;28;20093;-76
2021/01/04 10:48:18;;;;;;;18.40;15.27;;;0.60;65.10;;;;;;5166058;28;20045;-76
2021/01/04 10:50:54;;;;;;;19.30;15.00;;;0.50;63.20;;;;;;5157966;28;20042;-77
2021/01/04 10:53:37;;;;;;;18.60;15.63;;;0.40;64.20;;;;;;5165718;28;20042;-79
2021/01/04 10:56:10;;;;;;;20.27;16.15;;;0.40;63.60;;;;;;5156835;28;20049;-77
2021/01/04 10:58:47;;;;;;;17.50;15.23;;;0.60;65.20;;;;;;5164610;28;20555;-77
2021/01/04 11:01:21;;;;;;;17.08;14.55;;;0.70;65.80;;;;;;5164098;28;20443;-77
2021/01/04 11:03:56;;;;;;;18.42;15.68;;;0.90;64.90;;;;;;5150080;28;20046;-78
2021/01/04 11:06:30;;;;;;;19.48;15.85;;;1.10;64.10;;;;;;5168289;28;20078;-78
2021/01/04 11:09:13;;;;;;;17.73;15.20;;;1.20;63.20;;;;;;5170006;28;20050;-79
2021/01/04 11:11:48;;;;;;;19.63;15.40;;;1.30;64.00;;;;;;5166153;28;20665;-79
2021/01/04 11:14:22;;;;;;;19.73;15.98;;;1.30;62.40;;;;;;5138459;28;20064;-79
2021/01/04 11:17:12;;;;;;;20.15;16.65;;;1.30;61.40;;;;;;5168232;28;20042;-75
2021/01/04 11:19:53;;;;;;;25.65;20.73;;;1.30;61.20;;;;;;5167734;28;20574;-77
2021/01/04 11:22:26;;;;;;;;;;;1.30;63.20;;;;;;5156852;28;20081;-77
2021/01/04 11:24:58;;;;;;;18.42;16.20;;;1.40;62.80;;;;;;5168075;28;19929;-77
2021/01/04 11:27:29;;;;;;;21.02;17.63;;;1.50;63.00;;;;;;5168610;28;20125;-77
2021/01/04 11:30:01;;;;;;;19.98;16.95;;;1.50;62.50;;;;;;5167999;28;20049;-76
2021/01/04 11:32:33;;;;;;;18.88;16.15;;;1.70;63.00;;;;;;5165659;28;20038;-77
2021/01/04 11:35:05;;;;;;;17.35;15.48;;;1.80;61.00;;;;;;5167226;28;20050;-78
2021/01/04 11:37:36;;;;;;;20.10;15.80;;;1.90;61.10;;;;;;5149119;28;20128;-79
2021/01/04 11:40:11;;;;;;;18.52;15.18;;;1.80;60.80;;;;;;5167227;28;20111;-77
2021/01/04 11:42:43;;;;;;;19.20;16.05;;;1.70;59.80;;;;;;5167254;28;21157;-76
2021/01/04 11:45:18;;;;;;;19.00;15.50;;;1.70;60.50;;;;;;5166404;28;20050;-75
2021/01/04 11:47:50;;;;;;;17.55;15.32;;;1.80;61.00;;;;;;5168151;28;20049;-77
2021/01/04 11:50:21;;;;;;;19.38;15.77;;;2.00;60.80;;;;;;5171387;28;20050;-76
2021/01/04 11:52:56;;;;;;;18.45;15.77;;;2.00;58.80;;;;;;5157335;28;20054;-76
2021/01/04 11:55:27;;;;;;;19.85;15.80;;;2.00;61.60;;;;;;5169197;28;20069;-74
2021/01/04 11:57:59;;;;;;;19.30;15.52;;;2.20;61.00;;;;;;5154619;28;20048;-77
2021/01/04 12:00:31;;;;;;;18.83;16.75;;;2.40;61.30;;;;;;5171604;28;20050;-75
2021/01/04 12:03:03;;;;;;;20.10;16.30;;;2.50;60.20;;;;;;5171304;28;20559;-77
2021/01/04 12:05:35;;;;;;;18.17;15.48;;;2.60;59.90;;;;;;5169437;28;20416;-76
2021/01/04 12:08:06;;;;;;;17.67;15.77;;;2.60;58.10;;;;;;5170626;28;20053;-76
2021/01/04 12:10:38;;;;;;;20.85;17.45;;;2.60;58.80;;;;;;5168465;28;20058;-78
2021/01/04 12:13:09;;;;;;;18.27;16.27;;;2.40;58.00;;;;;;5160217;28;20097;-75
2021/01/04 12:15:41;;;;;;;19.35;16.05;;;2.00;59.40;;;;;;5166689;28;20046;-75
2021/01/04 12:18:12;;;;;;;18.75;14.90;;;1.90;60.90;;;;;;5170678;28;20054;-77
2021/01/04 12:20:44;;;;;;;18.85;15.75;;;2.10;59.90;;;;;;5168105;28;20862;-77
2021/01/04 12:23:16;;;;;;;19.17;15.95;;;2.10;59.60;;;;;;5169063;28;20056;-77
2021/01/04 12:25:47;;;;;;;19.58;16.13;;;2.10;59.70;;;;;;5170809;28;20046;-75
2021/01/04 12:28:19;;;;;;;18.70;16.25;;;2.10;60.40;;;;;;5149493;28;20478;-76
2021/01/04 12:30:50;;;;;;;18.83;16.55;;;2.10;60.40;;;;;;5168074;28;20081;-76
2021/01/04 12:33:24;;;;;;;19.02;15.90;;;2.10;60.30;;;;;;5159344;28;20046;-77
2021/01/04 12:35:58;;;;;;;18.67;16.13;;;2.20;59.50;;;;;;5140260;28;20057;-74
2021/01/04 12:38:29;;;;;;;18.80;15.98;;;2.30;60.50;;;;;;5165806;28;20530;-73
2021/01/04 12:41:01;;;;;;;21.05;16.00;;;2.40;59.60;;;;;;5162976;28;20138;-75
2021/01/04 12:43:32;;;;;;;19.67;16.20;;;2.50;59.80;;;;;;5144978;28;20046;-74
2021/01/04 12:46:05;;;;;;;19.35;16.77;;;2.60;59.60;;;;;;5167536;28;20050;-77
2021/01/04 12:48:36;;;;;;;19.73;15.98;;;2.60;59.90;;;;;;5148853;28;20042;-76
2021/01/04 12:51:09;;;;;;;19.55;16.25;;;2.60;59.70;;;;;;5167084;28;20509;-75
2021/01/04 12:53:41;;;;;;;21.77;17.70;;;2.40;59.50;;;;;;5169876;28;20389;-72
2021/01/04 12:56:16;;;;;;;22.40;17.05;;;2.50;60.50;;;;;;5170669;28;20066;-76
2021/01/04 12:58:48;;;;;;;18.77;16.35;;;2.40;60.40;;;;;;5165341;28;20159;-76
2021/01/04 13:01:21;;;;;;;21.55;17.25;;;2.40;59.80;;;;;;5166408;28;20072;-74
2021/01/04 13:03:53;;;;;;;20.80;16.85;;;2.40;60.50;;;;;;5124358;28;20125;-76
2021/01/04 13:06:27;;;;;;;19.27;15.68;;;2.30;60.20;;;;;;5168845;28;20113;-76
2021/01/04 13:08:59;;;;;;;19.27;16.08;;;2.30;60.30;;;;;;5157018;28;20054;-76
2021/01/04 13:11:30;;;;;;;19.10;16.60;;;2.20;60.80;;;;;;5155306;28;20045;-75
2021/01/04 13:14:02;;;;;;;18.17;16.17;;;2.20;60.40;;;;;;5170590;28;20663;-74
2021/01/04 13:16:35;;;;;;;17.58;15.38;;;2.20;60.40;;;;;;5165056;28;20045;-74
2021/01/04 13:19:08;;;;;;;20.08;16.50;;;2.10;60.80;;;;;;5120724;28;20041;-74
2021/01/04 13:21:40;;;;;;;18.33;15.98;;;2.00;60.20;;;;;;5165313;28;20049;-74
2021/01/04 13:24:15;;;;;;;17.70;15.55;;;1.90;60.90;;;;;;5164447;28;20050;-75
2021/01/04 13:26:49;;;;;;;19.35;16.23;;;2.00;61.60;;;;;;5148271;28;20042;-76
2021/01/04 13:29:26;;;;;;;17.73;15.32;;;2.00;61.40;;;;;;5163848;28;20070;-74
2021/01/04 13:32:08;;;;;;;19.48;15.93;;;2.00;61.30;;;;;;5147113;28;20046;-75
2021/01/04 13:34:40;;;;;;;21.13;16.75;;;2.00;61.60;;;;;;5167395;28;20467;-75
2021/01/04 13:37:12;;;;;;;20.27;16.65;;;2.10;61.70;;;;;;5148530;28;20048;-75
2021/01/04 13:39:46;;;;;;;20.27;16.30;;;2.00;61.70;;;;;;5152224;28;20508;-73
2021/01/04 13:42:20;;;;;;;19.13;15.95;;;2.00;61.60;;;;;;5167088;28;20153;-75
2021/01/04 13:44:51;;;;;;;20.67;16.80;;;2.00;62.10;;;;;;5165524;28;20504;-75